sensor_id;sensor_type;location;lat;lon;timestamp;temperature;humidity
55331;DHT22;58851;42.984;20.336;2023-06-26T00:00:14;487.20;128.00
55331;DHT22;58851;42.984;20.336;2023-06-26T00:02:40;487.20;128.00
55331;DHT22;58851;42.984;20.336;2023-06-26T00:05:06;487.20;128.00
55331;DHT22;58851;42.984;20.336;2023-06-26T00:07:32;487.20;128.00
55331;DHT22;58851;42.984;20.336;2023-06-26T00:10:00;487.30;128.00
55331;DHT22;58851;42.984;20.336;2023-06-26T00:12:26;512.00;128.00
55331;DHT22;58851;42.984;20.336;2023-06-26T00:14:52;512.10;128.00
55331;DHT22;58851;42.984;20.336;2023-06-26T00:17:18;512.10;128.00
55331;DHT22;58851;42.984;20.336;2023-06-26T00:19:44;512.10;128.00
55331;DHT22;58851;42.984;20.336;2023-06-26T00:22:11;487.30;128.00
55331;DHT22;58851;42.984;20.336;2023-06-26T00:24:37;512.00;128.00
55331;DHT22;58851;42.984;20.336;2023-06-26T00:27:03;512.10;128.00
55331;DHT22;58851;42.984;20.336;2023-06-26T00:29:28;512.10;128.00
55331;DHT22;58851;42.984;20.336;2023-06-26T00:31:54;487.30;128.00
55331;DHT22;58851;42.984;20.336;2023-06-26T00:34:20;487.30;128.00
55331;DHT22;58851;42.984;20.336;2023-06-26T00:36:46;512.00;128.00
55331;DHT22;58851;42.984;20.336;2023-06-26T00:39:12;487.30;128.00
55331;DHT22;58851;42.984;20.336;2023-06-26T00:41:38;512.00;128.00
55331;DHT22;58851;42.984;20.336;2023-06-26T00:44:05;487.30;128.00
55331;DHT22;58851;42.984;20.336;2023-06-26T00:46:31;487.30;128.00
55331;DHT22;58851;42.984;20.336;2023-06-26T00:49:02;487.30;128.00
55331;DHT22;58851;42.984;20.336;2023-06-26T00:51:29;487.30;128.00
55331;DHT22;58851;42.984;20.336;2023-06-26T00:53:57;487.20;128.00
55331;DHT22;58851;42.984;20.336;2023-06-26T00:56:23;487.10;128.00
55331;DHT22;58851;42.984;20.336;2023-06-26T00:58:49;487.20;128.00
55331;DHT22;58851;42.984;20.336;2023-06-26T01:01:15;487.20;128.00
55331;DHT22;58851;42.984;20.336;2023-06-26T01:03:43;487.30;128.00
55331;DHT22;58851;42.984;20.336;2023-06-26T01:06:11;487.30;128.00
55331;DHT22;58851;42.984;20.336;2023-06-26T01:08:42;487.20;128.00
55331;DHT22;58851;42.984;20.336;2023-06-26T01:11:08;487.20;128.00
55331;DHT22;58851;42.984;20.336;2023-06-26T01:13:35;487.00;128.00
55331;DHT22;58851;42.984;20.336;2023-06-26T01:16:02;487.00;128.00
55331;DHT22;58851;42.984;20.336;2023-06-26T01:18:29;487.00;128.00
55331;DHT22;58851;42.984;20.336;2023-06-26T01:20:56;487.00;128.00
55331;DHT22;58851;42.984;20.336;2023-06-26T01:26:22;486.90;128.00
55331;DHT22;58851;42.984;20.336;2023-06-26T01:28:52;486.90;128.00
55331;DHT22;58851;42.984;20.336;2023-06-26T01:31:19;486.90;128.00
55331;DHT22;58851;42.984;20.336;2023-06-26T01:33:45;487.00;128.00
55331;DHT22;58851;42.984;20.336;2023-06-26T01:36:12;487.00;128.00
55331;DHT22;58851;42.984;20.336;2023-06-26T01:38:38;487.00;128.00
55331;DHT22;58851;42.984;20.336;2023-06-26T01:41:05;487.00;128.00
55331;DHT22;58851;42.984;20.336;2023-06-26T01:46:06;487.00;128.00
55331;DHT22;58851;42.984;20.336;2023-06-26T01:48:46;487.00;128.00
55331;DHT22;58851;42.984;20.336;2023-06-26T01:51:14;487.00;128.00
55331;DHT22;58851;42.984;20.336;2023-06-26T01:53:46;486.90;128.00
55331;DHT22;58851;42.984;20.336;2023-06-26T01:56:17;486.60;128.00
55331;DHT22;58851;42.984;20.336;2023-06-26T01:58:46;486.70;128.00
55331;DHT22;58851;42.984;20.336;2023-06-26T02:01:12;486.60;128.00
55331;DHT22;58851;42.984;20.336;2023-06-26T02:03:38;486.50;128.00
55331;DHT22;58851;42.984;20.336;2023-06-26T02:06:04;461.70;128.00
55331;DHT22;58851;42.984;20.336;2023-06-26T02:08:30;461.70;128.00
55331;DHT22;58851;42.984;20.336;2023-06-26T02:10:55;461.60;128.00
55331;DHT22;58851;42.984;20.336;2023-06-26T02:13:21;461.70;128.00
55331;DHT22;58851;42.984;20.336;2023-06-26T02:15:48;461.60;128.00
55331;DHT22;58851;42.984;20.336;2023-06-26T02:18:13;461.70;128.00
55331;DHT22;58851;42.984;20.336;2023-06-26T02:20:39;486.40;128.00
55331;DHT22;58851;42.984;20.336;2023-06-26T02:23:05;486.40;128.00
55331;DHT22;58851;42.984;20.336;2023-06-26T02:25:31;486.40;128.00
55331;DHT22;58851;42.984;20.336;2023-06-26T02:27:57;486.50;128.00
55331;DHT22;58851;42.984;20.336;2023-06-26T02:30:22;486.60;128.00
55331;DHT22;58851;42.984;20.336;2023-06-26T02:32:48;486.60;128.00
55331;DHT22;58851;42.984;20.336;2023-06-26T02:35:14;486.60;128.00
55331;DHT22;58851;42.984;20.336;2023-06-26T02:37:40;486.60;128.00
55331;DHT22;58851;42.984;20.336;2023-06-26T02:40:06;486.50;128.00
55331;DHT22;58851;42.984;20.336;2023-06-26T02:42:35;486.40;128.00
55331;DHT22;58851;42.984;20.336;2023-06-26T02:45:01;486.40;128.00
55331;DHT22;58851;42.984;20.336;2023-06-26T02:47:27;486.40;128.00
55331;DHT22;58851;42.984;20.336;2023-06-26T02:49:53;486.50;128.00
55331;DHT22;58851;42.984;20.336;2023-06-26T02:52:18;486.40;128.00
55331;DHT22;58851;42.984;20.336;2023-06-26T02:54:45;486.50;128.00
55331;DHT22;58851;42.984;20.336;2023-06-26T02:57:10;486.60;128.00
55331;DHT22;58851;42.984;20.336;2023-06-26T02:59:39;486.60;128.00
55331;DHT22;58851;42.984;20.336;2023-06-26T03:02:05;486.60;128.00
55331;DHT22;58851;42.984;20.336;2023-06-26T03:04:31;486.50;128.00
55331;DHT22;58851;42.984;20.336;2023-06-26T03:06:56;486.50;128.00
55331;DHT22;58851;42.984;20.336;2023-06-26T03:09:22;486.40;128.00
55331;DHT22;58851;42.984;20.336;2023-06-26T03:11:48;486.40;128.00
55331;DHT22;58851;42.984;20.336;2023-06-26T03:14:14;486.40;128.00
55331;DHT22;58851;42.984;20.336;2023-06-26T03:16:40;486.40;128.00
55331;DHT22;58851;42.984;20.336;2023-06-26T03:19:06;486.40;128.00
55331;DHT22;58851;42.984;20.336;2023-06-26T03:21:32;461.70;128.00
55331;DHT22;58851;42.984;20.336;2023-06-26T03:23:58;486.40;128.00
55331;DHT22;58851;42.984;20.336;2023-06-26T03:26:24;486.40;128.00
55331;DHT22;58851;42.984;20.336;2023-06-26T03:28:53;486.40;128.00
55331;DHT22;58851;42.984;20.336;2023-06-26T03:31:19;486.40;128.00
55331;DHT22;58851;42.984;20.336;2023-06-26T03:33:46;486.40;128.00
55331;DHT22;58851;42.984;20.336;2023-06-26T03:36:12;486.40;128.00
55331;DHT22;58851;42.984;20.336;2023-06-26T03:38:37;486.50;128.00
55331;DHT22;58851;42.984;20.336;2023-06-26T03:41:03;486.60;128.00
55331;DHT22;58851;42.984;20.336;2023-06-26T03:43:29;486.40;128.00
55331;DHT22;58851;42.984;20.336;2023-06-26T03:45:55;486.60;128.00
55331;DHT22;58851;42.984;20.336;2023-06-26T03:48:21;486.60;128.00
55331;DHT22;58851;42.984;20.336;2023-06-26T03:50:46;486.60;128.00
55331;DHT22;58851;42.984;20.336;2023-06-26T03:53:12;486.60;128.00
55331;DHT22;58851;42.984;20.336;2023-06-26T03:55:38;486.60;128.00
55331;DHT22;58851;42.984;20.336;2023-06-26T03:58:04;486.60;128.00
55331;DHT22;58851;42.984;20.336;2023-06-26T04:00:30;486.70;128.00
55331;DHT22;58851;42.984;20.336;2023-06-26T04:02:56;486.60;128.00
55331;DHT22;58851;42.984;20.336;2023-06-26T04:05:23;486.60;128.00
55331;DHT22;58851;42.984;20.336;2023-06-26T04:07:52;486.60;128.00
55331;DHT22;58851;42.984;20.336;2023-06-26T04:10:18;486.60;128.00
55331;DHT22;58851;42.984;20.336;2023-06-26T04:12:46;486.60;128.00
55331;DHT22;58851;42.984;20.336;2023-06-26T04:15:12;486.60;128.00
55331;DHT22;58851;42.984;20.336;2023-06-26T04:17:38;486.60;128.00
55331;DHT22;58851;42.984;20.336;2023-06-26T04:20:04;486.60;128.00
55331;DHT22;58851;42.984;20.336;2023-06-26T04:22:34;486.70;128.00
55331;DHT22;58851;42.984;20.336;2023-06-26T04:25:03;486.70;128.00
55331;DHT22;58851;42.984;20.336;2023-06-26T04:27:29;486.70;128.00
55331;DHT22;58851;42.984;20.336;2023-06-26T04:29:55;486.80;128.00
55331;DHT22;58851;42.984;20.336;2023-06-26T04:32:21;486.70;128.00
55331;DHT22;58851;42.984;20.336;2023-06-26T04:34:47;486.70;128.00
55331;DHT22;58851;42.984;20.336;2023-06-26T04:37:13;486.70;128.00
55331;DHT22;58851;42.984;20.336;2023-06-26T04:39:42;486.80;128.00
55331;DHT22;58851;42.984;20.336;2023-06-26T04:42:08;486.70;128.00
55331;DHT22;58851;42.984;20.336;2023-06-26T04:44:35;486.70;128.00
55331;DHT22;58851;42.984;20.336;2023-06-26T04:47:03;486.80;128.00
55331;DHT22;58851;42.984;20.336;2023-06-26T04:49:29;486.80;128.00
55331;DHT22;58851;42.984;20.336;2023-06-26T04:51:56;486.90;128.00
55331;DHT22;58851;42.984;20.336;2023-06-26T04:54:22;486.90;128.00
55331;DHT22;58851;42.984;20.336;2023-06-26T04:56:48;486.90;128.00
55331;DHT22;58851;42.984;20.336;2023-06-26T04:59:14;486.90;128.00
55331;DHT22;58851;42.984;20.336;2023-06-26T05:01:40;486.90;128.00
55331;DHT22;58851;42.984;20.336;2023-06-26T05:04:06;486.90;128.00
55331;DHT22;58851;42.984;20.336;2023-06-26T05:06:32;486.80;128.00
55331;DHT22;58851;42.984;20.336;2023-06-26T05:08:58;486.90;128.00
55331;DHT22;58851;42.984;20.336;2023-06-26T05:11:24;486.90;128.00
55331;DHT22;58851;42.984;20.336;2023-06-26T05:13:50;486.90;128.00
55331;DHT22;58851;42.984;20.336;2023-06-26T05:16:16;486.90;128.00
55331;DHT22;58851;42.984;20.336;2023-06-26T05:18:42;486.80;128.00
55331;DHT22;58851;42.984;20.336;2023-06-26T05:21:08;486.80;128.00
55331;DHT22;58851;42.984;20.336;2023-06-26T05:23:34;486.90;128.00
55331;DHT22;58851;42.984;20.336;2023-06-26T05:26:01;486.90;128.00
55331;DHT22;58851;42.984;20.336;2023-06-26T05:28:28;486.90;128.00
55331;DHT22;58851;42.984;20.336;2023-06-26T05:30:57;486.80;128.00
55331;DHT22;58851;42.984;20.336;2023-06-26T05:33:24;486.90;128.00
55331;DHT22;58851;42.984;20.336;2023-06-26T05:35:54;486.90;128.00
55331;DHT22;58851;42.984;20.336;2023-06-26T05:38:20;486.90;128.00
55331;DHT22;58851;42.984;20.336;2023-06-26T05:40:46;487.00;128.00
55331;DHT22;58851;42.984;20.336;2023-06-26T05:43:12;486.90;128.00
55331;DHT22;58851;42.984;20.336;2023-06-26T05:45:39;487.00;128.00
55331;DHT22;58851;42.984;20.336;2023-06-26T05:48:05;487.10;128.00
55331;DHT22;58851;42.984;20.336;2023-06-26T05:50:31;487.10;128.00
55331;DHT22;58851;42.984;20.336;2023-06-26T05:52:57;486.90;128.00
55331;DHT22;58851;42.984;20.336;2023-06-26T05:55:24;487.00;128.00
55331;DHT22;58851;42.984;20.336;2023-06-26T05:57:51;487.20;128.00
55331;DHT22;58851;42.984;20.336;2023-06-26T06:00:17;512.00;128.00
55331;DHT22;58851;42.984;20.336;2023-06-26T06:02:43;512.10;128.00
55331;DHT22;58851;42.984;20.336;2023-06-26T06:05:09;512.00;128.00
55331;DHT22;58851;42.984;20.336;2023-06-26T06:07:36;512.10;128.00
55331;DHT22;58851;42.984;20.336;2023-06-26T06:10:02;512.10;128.00
55331;DHT22;58851;42.984;20.336;2023-06-26T06:12:28;512.20;128.00
55331;DHT22;58851;42.984;20.336;2023-06-26T06:14:55;512.10;128.00
55331;DHT22;58851;42.984;20.336;2023-06-26T06:17:22;512.20;128.00
55331;DHT22;58851;42.984;20.336;2023-06-26T06:19:48;512.20;128.00
55331;DHT22;58851;42.984;20.336;2023-06-26T06:22:14;512.30;128.00
55331;DHT22;58851;42.984;20.336;2023-06-26T06:24:39;512.20;128.00
55331;DHT22;58851;42.984;20.336;2023-06-26T06:27:05;512.30;128.00
55331;DHT22;58851;42.984;20.336;2023-06-26T06:29:31;512.30;128.00
55331;DHT22;58851;42.984;20.336;2023-06-26T06:31:57;512.40;128.00
55331;DHT22;58851;42.984;20.336;2023-06-26T06:34:24;512.50;128.00
55331;DHT22;58851;42.984;20.336;2023-06-26T06:36:50;512.50;128.00
55331;DHT22;58851;42.984;20.336;2023-06-26T06:39:16;512.80;128.00
55331;DHT22;58851;42.984;20.336;2023-06-26T06:41:42;537.70;128.00
55331;DHT22;58851;42.984;20.336;2023-06-26T06:44:07;537.80;128.00
55331;DHT22;58851;42.984;20.336;2023-06-26T06:46:34;537.90;128.00
55331;DHT22;58851;42.984;20.336;2023-06-26T06:48:59;538.00;128.00
55331;DHT22;58851;42.984;20.336;2023-06-26T06:51:26;538.10;128.00
55331;DHT22;58851;42.984;20.336;2023-06-26T06:53:52;538.30;128.00
55331;DHT22;58851;42.984;20.336;2023-06-26T06:56:17;563.30;128.00
55331;DHT22;58851;42.984;20.336;2023-06-26T06:58:43;563.40;128.00
55331;DHT22;58851;42.984;20.336;2023-06-26T07:01:12;563.70;128.00
55331;DHT22;58851;42.984;20.336;2023-06-26T07:03:37;563.80;128.00
55331;DHT22;58851;42.984;20.336;2023-06-26T07:06:03;563.70;128.00
55331;DHT22;58851;42.984;20.336;2023-06-26T07:08:29;563.70;128.00
55331;DHT22;58851;42.984;20.336;2023-06-26T07:10:55;563.70;128.00
55331;DHT22;58851;42.984;20.336;2023-06-26T07:13:24;563.70;128.00
55331;DHT22;58851;42.984;20.336;2023-06-26T07:15:50;563.50;128.00
55331;DHT22;58851;42.984;20.336;2023-06-26T07:18:16;563.20;128.00
55331;DHT22;58851;42.984;20.336;2023-06-26T07:20:42;563.30;128.00
55331;DHT22;58851;42.984;20.336;2023-06-26T07:23:08;563.50;128.00
55331;DHT22;58851;42.984;20.336;2023-06-26T07:25:34;563.50;128.00
55331;DHT22;58851;42.984;20.336;2023-06-26T07:28:00;563.70;128.00
55331;DHT22;58851;42.984;20.336;2023-06-26T07:30:26;563.70;128.00
55331;DHT22;58851;42.984;20.336;2023-06-26T07:32:52;563.70;128.00
55331;DHT22;58851;42.984;20.336;2023-06-26T07:35:18;563.90;128.00
55331;DHT22;58851;42.984;20.336;2023-06-26T07:37:44;563.90;128.00
55331;DHT22;58851;42.984;20.336;2023-06-26T07:40:10;564.00;128.00
55331;DHT22;58851;42.984;20.336;2023-06-26T07:42:36;563.80;128.00
55331;DHT22;58851;42.984;20.336;2023-06-26T07:45:02;563.80;128.00
55331;DHT22;58851;42.984;20.336;2023-06-26T07:47:36;564.00;128.00
55331;DHT22;58851;42.984;20.336;2023-06-26T07:50:02;564.00;128.00
55331;DHT22;58851;42.984;20.336;2023-06-26T07:52:28;564.00;128.00
55331;DHT22;58851;42.984;20.336;2023-06-26T07:54:53;564.00;128.00
55331;DHT22;58851;42.984;20.336;2023-06-26T07:57:19;588.90;128.00
55331;DHT22;58851;42.984;20.336;2023-06-26T07:59:45;564.10;128.00
55331;DHT22;58851;42.984;20.336;2023-06-26T08:02:11;588.80;128.00
55331;DHT22;58851;42.984;20.336;2023-06-26T08:04:36;588.80;128.00
55331;DHT22;58851;42.984;20.336;2023-06-26T08:07:02;588.80;128.00
55331;DHT22;58851;42.984;20.336;2023-06-26T08:09:31;564.10;128.00
55331;DHT22;58851;42.984;20.336;2023-06-26T08:11:58;564.10;128.00
55331;DHT22;58851;42.984;20.336;2023-06-26T08:14:24;588.80;128.00
55331;DHT22;58851;42.984;20.336;2023-06-26T08:16:50;588.90;128.00
55331;DHT22;58851;42.984;20.336;2023-06-26T08:19:16;589.00;128.00
55331;DHT22;58851;42.984;20.336;2023-06-26T08:21:44;564.00;128.00
55331;DHT22;58851;42.984;20.336;2023-06-26T08:24:10;563.90;128.00
55331;DHT22;58851;42.984;20.336;2023-06-26T08:26:38;563.70;128.00
55331;DHT22;58851;42.984;20.336;2023-06-26T08:29:04;563.70;128.00
55331;DHT22;58851;42.984;20.336;2023-06-26T08:31:39;563.70;128.00
55331;DHT22;58851;42.984;20.336;2023-06-26T08:34:05;563.90;128.00
55331;DHT22;58851;42.984;20.336;2023-06-26T08:36:31;563.90;128.00
55331;DHT22;58851;42.984;20.336;2023-06-26T08:38:57;563.90;128.00
55331;DHT22;58851;42.984;20.336;2023-06-26T08:41:23;564.00;128.00
55331;DHT22;58851;42.984;20.336;2023-06-26T08:43:49;589.00;128.00
55331;DHT22;58851;42.984;20.336;2023-06-26T08:46:18;589.30;128.00
55331;DHT22;58851;42.984;20.336;2023-06-26T08:49:08;589.60;128.00
55331;DHT22;58851;42.984;20.336;2023-06-26T08:51:39;614.40;128.00
55331;DHT22;58851;42.984;20.336;2023-06-26T08:54:09;589.70;128.00
55331;DHT22;58851;42.984;20.336;2023-06-26T08:56:42;614.40;128.00
55331;DHT22;58851;42.984;20.336;2023-06-26T08:59:08;614.40;128.00
55331;DHT22;58851;42.984;20.336;2023-06-26T09:01:38;614.40;128.00
55331;DHT22;58851;42.984;20.336;2023-06-26T09:04:04;614.80;128.00
55331;DHT22;58851;42.984;20.336;2023-06-26T09:06:31;614.80;128.00
55331;DHT22;58851;42.984;20.336;2023-06-26T09:08:57;614.90;128.00
55331;DHT22;58851;42.984;20.336;2023-06-26T09:11:23;615.00;128.00
55331;DHT22;58851;42.984;20.336;2023-06-26T09:13:49;614.80;128.00
55331;DHT22;58851;42.984;20.336;2023-06-26T09:16:14;615.00;128.00
55331;DHT22;58851;42.984;20.336;2023-06-26T09:18:42;615.10;128.00
55331;DHT22;58851;42.984;20.336;2023-06-26T09:21:11;615.20;128.00
55331;DHT22;58851;42.984;20.336;2023-06-26T09:23:39;615.30;128.00
55331;DHT22;58851;42.984;20.336;2023-06-26T09:26:06;640.00;128.00
55331;DHT22;58851;42.984;20.336;2023-06-26T09:28:33;640.20;128.00
55331;DHT22;58851;42.984;20.336;2023-06-26T09:31:03;640.20;128.00
55331;DHT22;58851;42.984;20.336;2023-06-26T09:33:34;640.30;128.00
55331;DHT22;58851;42.984;20.336;2023-06-26T09:36:04;640.70;128.00
55331;DHT22;58851;42.984;20.336;2023-06-26T09:38:30;640.70;128.00
55331;DHT22;58851;42.984;20.336;2023-06-26T09:40:56;640.90;128.00
55331;DHT22;58851;42.984;20.336;2023-06-26T09:43:21;665.60;256.00
55331;DHT22;58851;42.984;20.336;2023-06-26T09:45:48;640.90;230.40
55331;DHT22;58851;42.984;20.336;2023-06-26T09:48:14;665.60;358.40
55331;DHT22;58851;42.984;20.336;2023-06-26T09:50:41;665.60;435.20
55331;DHT22;58851;42.984;20.336;2023-06-26T09:53:11;665.60;409.60
55331;DHT22;58851;42.984;20.336;2023-06-26T09:55:39;665.80;409.60
55331;DHT22;58851;42.984;20.336;2023-06-26T09:58:06;666.10;409.60
55331;DHT22;58851;42.984;20.336;2023-06-26T10:00:32;666.00;153.60
55331;DHT22;58851;42.984;20.336;2023-06-26T10:03:01;666.30;153.60
55331;DHT22;58851;42.984;20.336;2023-06-26T10:05:28;666.30;153.60
55331;DHT22;58851;42.984;20.336;2023-06-26T10:07:55;691.30;256.00
55331;DHT22;58851;42.984;20.336;2023-06-26T10:10:23;691.20;153.60
55331;DHT22;58851;42.984;20.336;2023-06-26T10:12:58;691.30;179.20
55331;DHT22;58851;42.984;20.336;2023-06-26T10:15:25;666.50;153.60
55331;DHT22;58851;42.984;20.336;2023-06-26T10:17:55;666.30;153.60
55331;DHT22;58851;42.984;20.336;2023-06-26T10:20:23;666.30;153.60
55331;DHT22;58851;42.984;20.336;2023-06-26T10:22:49;666.40;153.60
55331;DHT22;58851;42.984;20.336;2023-06-26T10:25:19;666.50;153.60
55331;DHT22;58851;42.984;20.336;2023-06-26T10:27:48;666.10;153.60
55331;DHT22;58851;42.984;20.336;2023-06-26T10:30:19;665.80;153.60
55331;DHT22;58851;42.984;20.336;2023-06-26T10:32:47;665.80;153.60
55331;DHT22;58851;42.984;20.336;2023-06-26T10:35:13;665.80;153.60
55331;DHT22;58851;42.984;20.336;2023-06-26T10:37:46;665.60;153.60
55331;DHT22;58851;42.984;20.336;2023-06-26T10:40:13;640.80;307.20
55331;DHT22;58851;42.984;20.336;2023-06-26T10:42:40;665.60;204.80
55331;DHT22;58851;42.984;20.336;2023-06-26T10:45:11;665.80;281.60
55331;DHT22;58851;42.984;20.336;2023-06-26T10:47:40;665.80;179.20
55331;DHT22;58851;42.984;20.336;2023-06-26T10:50:28;665.80;204.80
55331;DHT22;58851;42.984;20.336;2023-06-26T10:53:34;666.10;153.60
55331;DHT22;58851;42.984;20.336;2023-06-26T10:56:02;666.30;153.60
55331;DHT22;58851;42.984;20.336;2023-06-26T10:58:41;666.50;153.60
55331;DHT22;58851;42.984;20.336;2023-06-26T11:01:23;691.30;153.60
55331;DHT22;58851;42.984;20.336;2023-06-26T11:06:24;691.80;153.60
55331;DHT22;58851;42.984;20.336;2023-06-26T11:08:52;691.90;153.60
55331;DHT22;58851;42.984;20.336;2023-06-26T12:36:13;742.70;204.80
55331;DHT22;58851;42.984;20.336;2023-06-26T12:38:40;768.50;204.80
55331;DHT22;58851;42.984;20.336;2023-06-26T12:41:12;768.80;204.80
55331;DHT22;58851;42.984;20.336;2023-06-26T12:43:39;768.80;204.80
55331;DHT22;58851;42.984;20.336;2023-06-26T12:46:05;794.10;230.40
55331;DHT22;58851;42.984;20.336;2023-06-26T12:48:42;794.20;230.40
55331;DHT22;58851;42.984;20.336;2023-06-26T12:51:16;819.20;230.40
55331;DHT22;58851;42.984;20.336;2023-06-26T12:53:43;819.70;435.20
55331;DHT22;58851;42.984;20.336;2023-06-26T12:56:09;844.90;844.80
55331;DHT22;58851;42.984;20.336;2023-06-26T12:58:37;844.80;256.00
55331;DHT22;58851;42.984;20.336;2023-06-26T13:01:07;845.00;256.00
55331;DHT22;58851;42.984;20.336;2023-06-26T13:03:40;845.30;256.00
55331;DHT22;58851;42.984;20.336;2023-06-26T13:06:06;845.50;256.00
55331;DHT22;58851;42.984;20.336;2023-06-26T13:08:34;845.10;256.00
55331;DHT22;58851;42.984;20.336;2023-06-26T13:11:00;844.90;256.00
55331;DHT22;58851;42.984;20.336;2023-06-26T13:13:25;820.00;230.40
55331;DHT22;58851;42.984;20.336;2023-06-26T13:15:51;819.80;230.40
55331;DHT22;58851;42.984;20.336;2023-06-26T13:18:17;819.60;230.40
55331;DHT22;58851;42.984;20.336;2023-06-26T13:20:43;819.80;230.40
55331;DHT22;58851;42.984;20.336;2023-06-26T13:23:09;844.90;256.00
55331;DHT22;58851;42.984;20.336;2023-06-26T13:25:35;845.30;256.00
55331;DHT22;58851;42.984;20.336;2023-06-26T13:28:00;819.90;230.40
55331;DHT22;58851;42.984;20.336;2023-06-26T13:30:26;819.40;230.40
55331;DHT22;58851;42.984;20.336;2023-06-26T13:32:52;794.30;230.40
55331;DHT22;58851;42.984;20.336;2023-06-26T13:35:18;794.00;230.40
55331;DHT22;58851;42.984;20.336;2023-06-26T13:37:44;768.60;204.80
55331;DHT22;58851;42.984;20.336;2023-06-26T13:40:10;768.50;204.80
55331;DHT22;58851;42.984;20.336;2023-06-26T13:42:36;794.20;230.40
55331;DHT22;58851;42.984;20.336;2023-06-26T13:45:03;819.90;230.40
55331;DHT22;58851;42.984;20.336;2023-06-26T13:47:29;844.80;256.00
55331;DHT22;58851;42.984;20.336;2023-06-26T13:49:55;845.50;256.00
55331;DHT22;58851;42.984;20.336;2023-06-26T13:52:21;870.60;256.00
55331;DHT22;58851;42.984;20.336;2023-06-26T13:54:47;870.90;256.00
55331;DHT22;58851;42.984;20.336;2023-06-26T13:57:25;896.80;256.00
55331;DHT22;58851;42.984;20.336;2023-06-26T13:59:53;870.90;256.00
55331;DHT22;58851;42.984;20.336;2023-06-26T14:02:19;896.90;256.00
55331;DHT22;58851;42.984;20.336;2023-06-26T14:04:45;896.80;256.00
55331;DHT22;58851;42.984;20.336;2023-06-26T14:07:10;921.70;281.60
55331;DHT22;58851;42.984;20.336;2023-06-26T14:09:36;922.50;281.60
55331;DHT22;58851;42.984;20.336;2023-06-26T14:12:02;922.50;281.60
55331;DHT22;58851;42.984;20.336;2023-06-26T14:14:28;947.80;281.60
55331;DHT22;58851;42.984;20.336;2023-06-26T14:16:54;922.10;281.60
55331;DHT22;58851;42.984;20.336;2023-06-26T14:19:20;922.30;281.60
55331;DHT22;58851;42.984;20.336;2023-06-26T14:21:46;947.60;281.60
55331;DHT22;58851;42.984;20.336;2023-06-26T14:24:17;922.30;281.60
55331;DHT22;58851;42.984;20.336;2023-06-26T14:26:43;948.00;281.60
55331;DHT22;58851;42.984;20.336;2023-06-26T14:29:09;998.40;332.80
55331;DHT22;58851;42.984;20.336;2023-06-26T14:34:03;998.70;332.80
55331;DHT22;58851;42.984;20.336;2023-06-26T14:36:29;1024.00;819.20
55331;DHT22;58851;42.984;20.336;2023-06-26T14:56:03;1024.00;716.80
55331;DHT22;58851;42.984;20.336;2023-06-26T14:58:31;1024.00;588.80
55331;DHT22;58851;42.984;20.336;2023-06-26T15:00:57;1024.90;332.80
55331;DHT22;58851;42.984;20.336;2023-06-26T15:03:23;1049.90;358.40
55331;DHT22;58851;42.984;20.336;2023-06-26T15:05:49;1075.20;358.40
55331;DHT22;58851;42.984;20.336;2023-06-26T15:08:15;1076.00;358.40
55331;DHT22;58851;42.984;20.336;2023-06-26T15:10:41;1101.40;384.00
55331;DHT22;58851;42.984;20.336;2023-06-26T15:13:07;1101.60;384.00
55331;DHT22;58851;42.984;20.336;2023-06-26T15:15:33;1101.60;384.00
55331;DHT22;58851;42.984;20.336;2023-06-26T15:17:59;1126.70;409.60
55331;DHT22;58851;42.984;20.336;2023-06-26T15:20:25;1127.20;409.60
55331;DHT22;58851;42.984;20.336;2023-06-26T15:22:51;1127.10;409.60
55331;DHT22;58851;42.984;20.336;2023-06-26T15:25:17;1152.20;409.60
55331;DHT22;58851;42.984;20.336;2023-06-26T15:27:43;1126.50;409.60
55331;DHT22;58851;42.984;20.336;2023-06-26T15:30:09;1127.00;409.60
55331;DHT22;58851;42.984;20.336;2023-06-26T15:32:35;1101.50;384.00
55331;DHT22;58851;42.984;20.336;2023-06-26T15:35:01;1126.60;409.60
55331;DHT22;58851;42.984;20.336;2023-06-26T15:37:27;1127.00;409.60
55331;DHT22;58851;42.984;20.336;2023-06-26T15:39:53;1127.10;409.60
55331;DHT22;58851;42.984;20.336;2023-06-26T15:42:19;1152.20;409.60
55331;DHT22;58851;42.984;20.336;2023-06-26T15:44:44;1152.70;409.60
55331;DHT22;58851;42.984;20.336;2023-06-26T15:47:10;1177.80;409.60
55331;DHT22;58851;42.984;20.336;2023-06-26T15:49:36;1178.10;409.60
55331;DHT22;58851;42.984;20.336;2023-06-26T15:52:02;1152.50;409.60
55331;DHT22;58851;42.984;20.336;2023-06-26T15:54:28;1177.70;409.60
55331;DHT22;58851;42.984;20.336;2023-06-26T15:56:53;1177.90;409.60
55331;DHT22;58851;42.984;20.336;2023-06-26T15:59:19;1152.10;409.60
55331;DHT22;58851;42.984;20.336;2023-06-26T16:01:45;1152.80;409.60
55331;DHT22;58851;42.984;20.336;2023-06-26T16:04:11;1178.10;409.60
55331;DHT22;58851;42.984;20.336;2023-06-26T16:06:38;1177.90;409.60
55331;DHT22;58851;42.984;20.336;2023-06-26T16:09:03;1177.80;409.60
55331;DHT22;58851;42.984;20.336;2023-06-26T16:11:29;1178.10;409.60
55331;DHT22;58851;42.984;20.336;2023-06-26T16:13:55;1152.10;409.60
55331;DHT22;58851;42.984;20.336;2023-06-26T16:16:23;1152.20;409.60
55331;DHT22;58851;42.984;20.336;2023-06-26T16:18:49;1152.50;409.60
55331;DHT22;58851;42.984;20.336;2023-06-26T16:21:15;1152.80;409.60
55331;DHT22;58851;42.984;20.336;2023-06-26T16:23:41;1152.30;409.60
55331;DHT22;58851;42.984;20.336;2023-06-26T16:26:07;1152.80;409.60
55331;DHT22;58851;42.984;20.336;2023-06-26T16:28:33;1152.20;409.60
55331;DHT22;58851;42.984;20.336;2023-06-26T16:30:59;1152.50;409.60
55331;DHT22;58851;42.984;20.336;2023-06-26T16:33:25;1152.10;409.60
55331;DHT22;58851;42.984;20.336;2023-06-26T16:35:50;1126.60;409.60